Time;durP1;ratioP1;P1;durP2;ratioP2;P2;SDS_P1;SDS_P2;PMS_P1;PMS_P2;Temp;Humidity;BMP_temperature;BMP_pressure;BME280_temperature;BME280_humidity;BME280_pressure;Samples;Min_cycle;Max_cycle;Signal;HPM_P1;HPM_P2
2021/10/06 00:02:05;;;;;;;10.80;2.23;;;12.40;99.90;;;;;;5055984;28;20187;-82
2021/10/06 00:04:30;;;;;;;9.80;2.70;;;12.10;99.90;;;;;;5055550;28;20173;-82
2021/10/06 00:06:56;;;;;;;7.50;2.43;;;12.20;99.90;;;;;;5055541;28;20213;-82
2021/10/06 00:09:24;;;;;;;8.27;2.10;;;12.10;99.90;;;;;;5055686;28;20556;-82
2021/10/06 00:11:49;;;;;;;6.03;2.40;;;12.00;99.90;;;;;;5055756;28;20542;-82
2021/10/06 00:14:15;;;;;;;9.37;2.13;;;12.00;99.90;;;;;;5055587;28;20165;-82
2021/10/06 00:16:41;;;;;;;5.77;1.90;;;11.90;99.90;;;;;;5055633;28;20199;-82
2021/10/06 00:19:07;;;;;;;10.33;2.50;;;11.90;99.90;;;;;;5055444;28;20259;-80
2021/10/06 00:21:34;;;;;;;8.60;2.20;;;12.00;99.90;;;;;;5054394;28;20279;-83
2021/10/06 00:23:59;;;;;;;10.50;2.47;;;12.10;99.90;;;;;;5054182;28;20596;-81
2021/10/06 00:26:25;;;;;;;11.83;2.50;;;12.10;99.90;;;;;;5055228;28;20205;-81
2021/10/06 00:28:51;;;;;;;9.27;2.43;;;12.20;99.90;;;;;;5054950;28;20573;-81
2021/10/06 00:31:16;;;;;;;9.10;2.37;;;12.10;99.90;;;;;;5055285;28;20354;-82
2021/10/06 00:33:42;;;;;;;6.23;2.00;;;12.00;99.90;;;;;;5055019;28;20195;-82
2021/10/06 00:36:09;;;;;;;9.67;2.10;;;12.10;99.90;;;;;;5053990;28;20268;-81
2021/10/06 00:38:35;;;;;;;8.30;2.13;;;12.00;99.90;;;;;;5054125;28;20184;-82
2021/10/06 00:41:02;;;;;;;6.47;1.70;;;12.00;99.90;;;;;;5056132;28;20256;-82
2021/10/06 00:43:28;;;;;;;10.33;3.23;;;12.00;99.90;;;;;;5055674;28;20185;-81
2021/10/06 00:45:54;;;;;;;9.10;2.20;;;12.10;99.90;;;;;;5054863;28;20680;-82
2021/10/06 00:48:20;;;;;;;10.27;2.40;;;12.10;99.90;;;;;;5054587;28;20177;-81
2021/10/06 00:50:46;;;;;;;6.70;2.10;;;12.00;99.90;;;;;;5054819;28;20177;-81
2021/10/06 00:53:12;;;;;;;7.47;2.03;;;12.00;99.90;;;;;;5053588;28;20185;-81
2021/10/06 00:55:40;;;;;;;7.80;2.00;;;11.90;99.90;;;;;;5054693;28;20212;-81
2021/10/06 00:58:06;;;;;;;5.13;2.03;;;12.00;99.90;;;;;;5054580;28;20247;-82
2021/10/06 01:00:32;;;;;;;6.63;1.90;;;11.80;99.90;;;;;;5055018;28;20259;-81
2021/10/06 01:02:58;;;;;;;12.03;2.50;;;12.00;99.90;;;;;;5053541;28;20279;-81
2021/10/06 01:05:24;;;;;;;7.27;2.00;;;12.00;99.90;;;;;;5053862;28;20231;-81
2021/10/06 01:07:50;;;;;;;9.40;2.20;;;12.00;99.90;;;;;;5053220;28;20656;-81
2021/10/06 01:10:15;;;;;;;6.07;2.10;;;12.00;99.90;;;;;;5054896;28;20663;-81
2021/10/06 01:12:42;;;;;;;8.67;2.43;;;12.10;99.90;;;;;;5055561;28;20183;-81
2021/10/06 01:15:10;;;;;;;6.43;1.67;;;12.00;99.90;;;;;;5057416;28;20182;-80
2021/10/06 01:17:36;;;;;;;5.63;1.60;;;12.00;99.90;;;;;;5059019;28;20169;-82
2021/10/06 01:20:04;;;;;;;6.43;1.90;;;12.10;99.90;;;;;;5060668;28;20664;-81
2021/10/06 01:22:30;;;;;;;7.50;2.13;;;12.00;99.90;;;;;;5059831;28;20248;-80
2021/10/06 01:25:00;;;;;;;9.17;1.80;;;12.00;99.90;;;;;;5059524;28;20169;-79
2021/10/06 01:27:25;;;;;;;6.77;1.93;;;12.00;99.90;;;;;;5057923;28;20231;-80
2021/10/06 01:29:51;;;;;;;9.60;1.80;;;12.00;99.90;;;;;;5053965;28;20637;-81
2021/10/06 01:32:18;;;;;;;8.93;1.97;;;12.00;99.90;;;;;;5055221;28;20189;-81
2021/10/06 01:35:01;;;;;;;9.37;2.20;;;12.00;99.90;;;;;;5056114;28;20239;-79
2021/10/06 01:37:27;;;;;;;8.73;1.80;;;12.10;99.90;;;;;;5054701;28;20207;-80
2021/10/06 01:39:54;;;;;;;10.50;2.13;;;12.10;99.90;;;;;;5055945;28;20181;-80
2021/10/06 01:42:19;;;;;;;7.30;2.10;;;12.10;99.90;;;;;;5055694;28;20173;-81
2021/10/06 01:44:45;;;;;;;8.40;1.90;;;12.30;99.90;;;;;;5052348;28;20188;-81
2021/10/06 01:47:20;;;;;;;6.13;1.97;;;12.20;99.90;;;;;;5052617;28;20704;-81
2021/10/06 01:49:47;;;;;;;7.47;1.97;;;12.10;99.90;;;;;;5053687;28;20267;-81
2021/10/06 01:52:22;;;;;;;12.57;2.00;;;12.00;99.90;;;;;;5053524;28;20193;-81
2021/10/06 01:54:48;;;;;;;12.50;1.97;;;12.00;99.90;;;;;;5053648;28;20199;-80
2021/10/06 01:57:14;;;;;;;5.60;1.70;;;12.00;99.90;;;;;;5052285;28;20270;-81
2021/10/06 01:59:42;;;;;;;6.90;2.10;;;12.00;99.90;;;;;;5051982;28;20724;-80
2021/10/06 02:02:08;;;;;;;9.37;2.37;;;12.00;99.90;;;;;;5052349;28;20200;-80
2021/10/06 02:04:34;;;;;;;8.63;1.80;;;12.00;99.90;;;;;;5052247;28;20180;-81
2021/10/06 02:07:00;;;;;;;8.63;1.73;;;12.00;99.90;;;;;;5053173;28;20231;-81
2021/10/06 02:09:25;;;;;;;5.37;1.50;;;12.10;99.90;;;;;;5053608;28;20582;-80
2021/10/06 02:11:51;;;;;;;7.03;1.60;;;12.00;99.90;;;;;;5051963;28;20187;-80
2021/10/06 02:14:17;;;;;;;6.13;1.93;;;12.20;99.90;;;;;;5051977;28;20664;-80
2021/10/06 02:16:42;;;;;;;4.83;1.70;;;12.10;99.90;;;;;;5053073;28;20189;-80
2021/10/06 02:19:08;;;;;;;7.00;1.87;;;12.00;99.90;;;;;;5054145;28;20181;-81
2021/10/06 02:21:34;;;;;;;10.37;2.40;;;12.00;99.90;;;;;;5054551;28;20288;-81
2021/10/06 02:24:00;;;;;;;4.93;1.80;;;11.90;99.90;;;;;;5053028;28;20176;-81
2021/10/06 02:26:26;;;;;;;10.23;2.00;;;11.90;99.90;;;;;;5053274;28;20204;-80
2021/10/06 02:28:52;;;;;;;7.33;2.00;;;11.80;99.90;;;;;;5052621;28;20235;-80
2021/10/06 02:31:17;;;;;;;7.03;1.80;;;12.00;99.90;;;;;;5052325;28;20193;-80
2021/10/06 02:33:43;;;;;;;9.73;2.00;;;12.00;99.90;;;;;;5053716;28;20645;-80
2021/10/06 02:36:09;;;;;;;6.97;1.70;;;11.90;99.90;;;;;;5053690;28;20184;-80
2021/10/06 02:38:34;;;;;;;6.97;1.80;;;11.80;99.90;;;;;;5054554;28;20632;-80
2021/10/06 02:41:00;;;;;;;7.90;2.17;;;11.90;99.90;;;;;;5051693;28;20181;-80
2021/10/06 02:43:26;;;;;;;5.57;1.50;;;11.80;99.90;;;;;;5052812;28;20234;-80
2021/10/06 02:45:51;;;;;;;4.70;1.67;;;11.80;99.90;;;;;;5056208;28;20544;-82
2021/10/06 02:48:17;;;;;;;8.97;2.33;;;11.90;99.90;;;;;;5055850;28;20184;-80
2021/10/06 02:50:43;;;;;;;6.97;1.87;;;11.80;99.90;;;;;;5056061;28;20188;-79
2021/10/06 02:53:09;;;;;;;7.23;2.00;;;11.90;99.90;;;;;;5055710;28;20188;-80
2021/10/06 02:55:34;;;;;;;8.70;1.83;;;12.20;99.90;;;;;;5063093;28;20169;-80
2021/10/06 02:58:00;;;;;;;5.93;1.83;;;11.90;99.90;;;;;;5081714;28;20208;-80
2021/10/06 03:00:26;;;;;;;5.30;1.50;;;12.00;99.90;;;;;;5064924;28;20539;-80
2021/10/06 03:02:51;;;;;;;7.53;1.63;;;11.90;99.90;;;;;;5057157;28;20531;-80
2021/10/06 03:05:17;;;;;;;7.13;1.63;;;11.90;99.90;;;;;;5055865;28;20641;-81
2021/10/06 03:07:52;;;;;;;5.47;1.83;;;11.90;99.90;;;;;;5056889;28;20219;-80
2021/10/06 03:10:19;;;;;;;7.20;1.30;;;11.90;99.90;;;;;;5056835;28;20184;-80
2021/10/06 03:12:45;;;;;;;5.70;1.33;;;11.90;99.90;;;;;;5056646;28;20551;-80
2021/10/06 03:15:12;;;;;;;10.80;1.93;;;11.90;99.90;;;;;;5055408;28;20181;-80
2021/10/06 03:17:38;;;;;;;7.40;1.70;;;12.00;99.90;;;;;;5056676;28;20181;-82
2021/10/06 03:20:07;;;;;;;8.50;1.80;;;12.10;99.90;;;;;;5074425;28;20168;-80
2021/10/06 03:22:32;;;;;;;6.10;1.60;;;12.00;99.90;;;;;;5081164;28;20237;-79
2021/10/06 03:24:58;;;;;;;8.23;1.83;;;12.00;99.90;;;;;;5065459;28;20185;-82
2021/10/06 03:27:24;;;;;;;9.97;1.80;;;12.00;99.90;;;;;;5058036;28;20688;-81
2021/10/06 03:29:50;;;;;;;10.73;2.00;;;12.00;99.90;;;;;;5056779;28;20527;-82
2021/10/06 03:32:23;;;;;;;5.47;1.67;;;11.90;99.90;;;;;;5056980;28;20172;-81
2021/10/06 03:34:49;;;;;;;4.50;1.27;;;12.10;99.90;;;;;;5054903;28;20184;-81
2021/10/06 03:37:15;;;;;;;6.90;1.53;;;12.00;99.90;;;;;;5056286;28;20169;-81
2021/10/06 03:39:41;;;;;;;4.83;1.37;;;11.90;99.90;;;;;;5054994;28;20185;-81
2021/10/06 03:42:07;;;;;;;8.10;1.80;;;12.00;99.90;;;;;;5054633;28;20548;-81
2021/10/06 03:44:36;;;;;;;6.87;1.87;;;12.00;99.90;;;;;;5054463;28;20185;-80
2021/10/06 03:47:02;;;;;;;6.20;1.80;;;11.90;99.90;;;;;;5059339;28;20227;-81
2021/10/06 03:49:27;;;;;;;9.03;1.60;;;11.90;99.90;;;;;;5059498;28;20637;-81
2021/10/06 03:51:54;;;;;;;7.77;1.73;;;12.00;99.90;;;;;;5054691;28;20216;-81
2021/10/06 03:54:19;;;;;;;7.07;1.80;;;12.10;99.90;;;;;;5054696;28;20177;-81
2021/10/06 03:56:45;;;;;;;7.90;2.00;;;11.90;99.90;;;;;;5054564;28;20208;-83
2021/10/06 03:59:11;;;;;;;5.50;1.50;;;12.00;99.90;;;;;;5055244;28;20193;-83
2021/10/06 04:01:37;;;;;;;7.70;2.33;;;12.00;99.90;;;;;;5054180;28;20189;-81
2021/10/06 04:04:02;;;;;;;5.87;2.03;;;12.10;99.80;;;;;;5055282;28;20235;-81
2021/10/06 04:06:28;;;;;;;5.53;1.40;;;12.20;99.70;;;;;;5054751;28;20628;-81
2021/10/06 04:08:54;;;;;;;5.17;1.70;;;12.20;99.80;;;;;;5054507;28;20232;-81
2021/10/06 04:11:19;;;;;;;9.57;1.67;;;12.00;99.80;;;;;;5053783;28;20231;-80
2021/10/06 04:13:45;;;;;;;6.77;1.90;;;12.30;99.90;;;;;;5055631;28;20577;-81
2021/10/06 04:16:11;;;;;;;7.10;1.60;;;12.10;99.90;;;;;;5055774;28;20180;-82
2021/10/06 04:18:36;;;;;;;6.73;1.40;;;12.00;99.90;;;;;;5054217;28;20235;-82
2021/10/06 04:21:02;;;;;;;8.70;1.70;;;12.00;99.90;;;;;;5055146;28;20283;-81
2021/10/06 04:23:28;;;;;;;8.77;1.73;;;11.90;99.90;;;;;;5055481;28;20616;-80
2021/10/06 04:25:53;;;;;;;7.97;1.40;;;11.90;99.90;;;;;;5055012;28;20731;-81
2021/10/06 04:28:19;;;;;;;5.80;1.30;;;12.00;99.90;;;;;;5055262;28;20185;-80
2021/10/06 04:30:44;;;;;;;5.90;1.43;;;12.00;99.90;;;;;;5055280;28;20272;-82
2021/10/06 04:33:13;;;;;;;6.67;1.40;;;12.30;99.00;;;;;;5055120;28;20173;-82
2021/10/06 04:35:39;;;;;;;5.70;1.50;;;12.20;98.90;;;;;;5053792;28;20645;-80
2021/10/06 04:38:04;;;;;;;7.03;1.47;;;12.20;98.60;;;;;;5053785;28;20189;-82
2021/10/06 04:40:30;;;;;;;8.87;2.00;;;12.40;99.00;;;;;;5053266;28;20228;-81
2021/10/06 04:42:56;;;;;;;8.43;2.10;;;12.10;98.90;;;;;;5053905;28;20192;-80
2021/10/06 04:45:22;;;;;;;5.00;1.33;;;12.20;98.30;;;;;;5056312;28;20208;-79
2021/10/06 04:47:47;;;;;;;5.00;1.53;;;12.30;98.10;;;;;;5056727;28;20224;-79
2021/10/06 04:50:13;;;;;;;4.27;1.27;;;12.20;98.60;;;;;;5054957;28;20188;-82
2021/10/06 04:52:39;;;;;;;4.40;1.30;;;12.20;98.20;;;;;;5054831;28;20666;-82
2021/10/06 04:55:05;;;;;;;6.27;1.63;;;12.40;98.10;;;;;;5054566;28;20181;-82
2021/10/06 04:57:31;;;;;;;4.80;1.23;;;12.30;98.10;;;;;;5053355;28;20567;-81
2021/10/06 04:59:57;;;;;;;10.30;1.70;;;12.30;98.10;;;;;;5054912;28;20189;-82
2021/10/06 05:02:22;;;;;;;6.47;1.77;;;12.30;98.10;;;;;;5055065;28;20584;-81
2021/10/06 05:04:48;;;;;;;7.73;1.50;;;12.30;98.00;;;;;;5055025;28;20664;-81
2021/10/06 05:07:14;;;;;;;8.30;2.13;;;12.40;98.10;;;;;;5053076;28;20639;-81
2021/10/06 05:09:39;;;;;;;7.47;1.87;;;12.40;98.20;;;;;;5056970;28;20633;-81
2021/10/06 05:12:05;;;;;;;8.30;1.70;;;12.40;98.10;;;;;;5055229;28;20235;-80
2021/10/06 05:14:31;;;;;;;9.07;2.10;;;12.40;98.60;;;;;;5054227;28;20181;-81
2021/10/06 05:16:56;;;;;;;10.87;1.93;;;12.30;98.80;;;;;;5052838;28;20185;-80
2021/10/06 05:19:22;;;;;;;6.40;1.50;;;12.30;99.50;;;;;;5053957;28;20617;-80
2021/10/06 05:21:48;;;;;;;8.03;1.70;;;12.30;99.60;;;;;;5053808;28;20680;-82
2021/10/06 05:24:14;;;;;;;8.93;1.93;;;12.30;99.50;;;;;;5052677;28;20188;-81
2021/10/06 05:26:39;;;;;;;5.90;1.87;;;12.30;99.90;;;;;;5052442;28;20216;-81
2021/10/06 05:29:05;;;;;;;5.67;1.80;;;12.30;99.90;;;;;;5054133;28;20196;-82
2021/10/06 05:31:31;;;;;;;6.13;1.77;;;12.30;99.90;;;;;;5053290;28;20185;-81
2021/10/06 05:33:57;;;;;;;8.87;1.97;;;12.30;99.90;;;;;;5053492;28;20320;-80
2021/10/06 05:36:23;;;;;;;7.87;1.67;;;12.20;99.90;;;;;;5053756;28;20177;-80
2021/10/06 05:38:49;;;;;;;4.90;1.50;;;12.20;99.90;;;;;;5054061;28;20356;-80
2021/10/06 05:41:15;;;;;;;5.83;1.93;;;12.10;99.90;;;;;;5053765;28;20660;-80
2021/10/06 05:43:41;;;;;;;10.40;1.63;;;12.10;99.90;;;;;;5051970;28;20177;-81
2021/10/06 05:46:06;;;;;;;8.00;2.13;;;12.20;99.90;;;;;;5051807;28;20223;-79
2021/10/06 05:48:33;;;;;;;8.00;1.60;;;12.10;99.90;;;;;;5053094;28;20193;-79
2021/10/06 05:50:59;;;;;;;6.60;1.87;;;12.20;99.90;;;;;;5061269;28;20263;-79
2021/10/06 05:53:25;;;;;;;7.87;1.87;;;12.20;99.90;;;;;;5061061;28;20201;-79
2021/10/06 05:55:50;;;;;;;5.20;1.87;;;12.30;99.90;;;;;;5062179;28;20181;-78
2021/10/06 05:58:18;;;;;;;7.13;2.20;;;12.20;99.90;;;;;;5055119;28;20200;-81
2021/10/06 06:00:44;;;;;;;5.43;1.60;;;12.20;99.90;;;;;;5044262;28;20197;-81
2021/10/06 06:03:11;;;;;;;5.00;1.40;;;12.10;99.90;;;;;;5041754;28;20263;-81
2021/10/06 06:05:40;;;;;;;5.77;1.90;;;12.20;99.90;;;;;;5044995;28;20244;-81
2021/10/06 06:08:06;;;;;;;8.27;1.93;;;12.30;99.90;;;;;;5055456;28;20221;-80
2021/10/06 06:10:33;;;;;;;7.93;1.73;;;12.00;99.90;;;;;;5057322;28;20641;-80
2021/10/06 06:12:58;;;;;;;5.37;1.97;;;12.00;99.90;;;;;;5053293;28;20173;-81
2021/10/06 06:15:24;;;;;;;8.27;2.33;;;12.00;99.90;;;;;;5054281;28;20173;-78
2021/10/06 06:17:50;;;;;;;8.23;2.07;;;12.00;99.90;;;;;;5073514;28;20180;-79
2021/10/06 06:20:23;;;;;;;5.50;1.90;;;12.00;99.90;;;;;;5067205;28;20188;-78
2021/10/06 06:22:50;;;;;;;7.73;2.20;;;11.90;99.90;;;;;;5053124;28;20553;-80
2021/10/06 06:25:15;;;;;;;9.17;2.13;;;11.90;99.90;;;;;;5053263;28;20248;-79
2021/10/06 06:27:41;;;;;;;8.73;2.67;;;12.00;99.90;;;;;;5052691;28;20309;-80
2021/10/06 06:30:07;;;;;;;7.83;2.40;;;11.90;99.90;;;;;;5051904;28;20177;-80
2021/10/06 06:32:33;;;;;;;7.67;2.10;;;11.80;99.90;;;;;;5052709;28;20169;-80
2021/10/06 06:34:59;;;;;;;6.97;2.03;;;11.80;99.90;;;;;;5051415;28;20177;-80
2021/10/06 06:37:25;;;;;;;8.30;2.60;;;12.00;99.90;;;;;;5060560;28;20208;-77
2021/10/06 06:39:50;;;;;;;9.97;2.77;;;12.10;99.90;;;;;;5074061;28;20633;-79
2021/10/06 06:42:16;;;;;;;7.97;2.70;;;11.90;99.90;;;;;;5066819;28;20181;-79
2021/10/06 06:44:42;;;;;;;11.80;2.30;;;11.80;99.90;;;;;;5058137;28;20645;-78
2021/10/06 06:47:08;;;;;;;7.03;1.97;;;11.80;99.90;;;;;;5057265;28;20315;-79
2021/10/06 06:49:33;;;;;;;10.43;2.03;;;11.80;99.90;;;;;;5051958;28;20604;-79
2021/10/06 06:51:59;;;;;;;8.30;1.60;;;11.80;99.90;;;;;;5052325;28;20173;-79
2021/10/06 06:54:25;;;;;;;8.97;1.93;;;11.90;99.90;;;;;;5052298;28;20625;-80
2021/10/06 06:56:51;;;;;;;7.90;2.03;;;11.90;99.90;;;;;;5052252;28;20264;-79
2021/10/06 06:59:17;;;;;;;7.67;2.20;;;11.80;99.90;;;;;;5052338;28;20590;-80
2021/10/06 07:01:42;;;;;;;8.77;1.83;;;11.90;99.90;;;;;;5052207;28;20249;-80
2021/10/06 07:04:09;;;;;;;6.87;2.07;;;11.80;99.90;;;;;;5052644;28;20637;-81
2021/10/06 07:06:35;;;;;;;5.97;2.17;;;11.90;99.90;;;;;;5052854;28;20236;-80
2021/10/06 07:09:05;;;;;;;5.57;1.90;;;11.90;99.90;;;;;;5051350;28;20185;-80
2021/10/06 07:11:31;;;;;;;5.93;1.90;;;11.90;99.90;;;;;;5051141;28;20177;-79
2021/10/06 07:13:57;;;;;;;6.67;2.00;;;11.80;99.90;;;;;;5052031;28;20204;-80
2021/10/06 07:16:23;;;;;;;9.67;1.83;;;11.70;99.90;;;;;;5052599;28;20224;-80
2021/10/06 07:18:48;;;;;;;6.40;2.07;;;11.80;99.90;;;;;;5051936;28;20177;-80
2021/10/06 07:21:14;;;;;;;6.23;2.17;;;11.80;99.90;;;;;;5052413;28;20184;-80
2021/10/06 07:23:40;;;;;;;9.27;2.23;;;12.00;99.90;;;;;;5052500;28;20173;-80
2021/10/06 07:26:06;;;;;;;7.90;2.50;;;11.80;99.90;;;;;;5052505;28;20212;-80
2021/10/06 07:28:31;;;;;;;10.43;2.70;;;11.80;99.90;;;;;;5052358;28;20492;-81
2021/10/06 07:30:57;;;;;;;7.17;2.10;;;11.70;99.90;;;;;;5054157;28;20181;-81
2021/10/06 07:33:23;;;;;;;8.33;1.93;;;11.70;99.90;;;;;;5056200;28;20536;-80
2021/10/06 07:35:48;;;;;;;6.57;1.80;;;11.80;99.90;;;;;;5056153;28;20235;-80
2021/10/06 07:38:15;;;;;;;8.53;2.67;;;11.80;99.90;;;;;;5054769;28;20184;-81
2021/10/06 07:40:40;;;;;;;8.27;2.13;;;11.80;99.90;;;;;;5056095;28;20173;-80
2021/10/06 07:43:06;;;;;;;7.87;2.47;;;11.60;99.90;;;;;;5055973;28;20535;-80
2021/10/06 07:45:32;;;;;;;6.43;1.80;;;11.70;99.90;;;;;;5055748;28;20235;-85
2021/10/06 07:47:58;;;;;;;6.93;2.20;;;11.70;99.90;;;;;;5056013;28;20212;-81
2021/10/06 07:50:24;;;;;;;8.97;2.30;;;11.80;99.90;;;;;;5059049;28;20173;-82
2021/10/06 07:52:49;;;;;;;7.47;2.60;;;11.70;99.90;;;;;;5057833;28;20185;-78
2021/10/06 07:55:15;;;;;;;8.03;2.70;;;11.80;99.90;;;;;;5057636;28;20188;-81
2021/10/06 07:57:41;;;;;;;8.30;2.70;;;11.90;99.90;;;;;;5056028;28;20276;-79
2021/10/06 08:00:08;;;;;;;8.30;2.97;;;11.80;99.90;;;;;;5055419;28;20177;-78
2021/10/06 08:02:35;;;;;;;10.90;2.87;;;11.80;99.90;;;;;;5055025;28;20595;-78
2021/10/06 08:05:00;;;;;;;8.07;2.60;;;11.80;99.90;;;;;;5055257;28;20176;-77
2021/10/06 08:07:26;;;;;;;9.10;2.90;;;11.80;99.90;;;;;;5057900;28;20771;-79
2021/10/06 08:09:52;;;;;;;9.60;2.70;;;11.80;99.90;;;;;;5059859;28;20170;-78
2021/10/06 08:12:19;;;;;;;6.00;2.70;;;11.80;99.90;;;;;;5055443;28;20185;-79
2021/10/06 08:14:45;;;;;;;5.83;2.60;;;11.80;99.90;;;;;;5055100;28;20238;-80
2021/10/06 08:17:11;;;;;;;6.77;3.20;;;11.80;99.90;;;;;;5053666;28;20288;-82
2021/10/06 08:19:37;;;;;;;7.27;3.00;;;11.90;99.90;;;;;;5055580;28;20230;-79
2021/10/06 08:22:03;;;;;;;8.23;3.20;;;11.90;99.90;;;;;;5055003;28;20602;-78
2021/10/06 08:24:29;;;;;;;6.97;3.00;;;11.80;99.90;;;;;;5054945;28;20653;-78
2021/10/06 08:26:56;;;;;;;7.30;2.70;;;11.90;99.90;;;;;;5052934;28;20307;-78
2021/10/06 08:29:21;;;;;;;10.07;3.20;;;11.90;99.90;;;;;;5054775;28;20267;-79
2021/10/06 08:31:47;;;;;;;6.33;3.00;;;11.90;99.90;;;;;;5054207;28;20587;-77
2021/10/06 08:34:13;;;;;;;4.33;2.53;;;11.90;99.90;;;;;;5054820;28;20184;-80
2021/10/06 08:36:38;;;;;;;7.00;2.73;;;11.80;99.90;;;;;;5054492;28;20181;-80
2021/10/06 08:39:08;;;;;;;7.53;3.90;;;11.80;99.90;;;;;;5054857;28;20173;-79
2021/10/06 08:41:35;;;;;;;9.20;3.27;;;11.90;99.90;;;;;;5054370;28;20181;-79
2021/10/06 08:44:01;;;;;;;6.80;3.10;;;11.90;99.90;;;;;;5055018;28;20173;-78
2021/10/06 08:46:27;;;;;;;6.97;3.07;;;11.80;99.90;;;;;;5054728;28;20618;-78
2021/10/06 08:48:54;;;;;;;5.87;3.00;;;11.90;99.90;;;;;;5056328;28;20263;-79
2021/10/06 08:51:21;;;;;;;8.83;3.23;;;11.90;99.90;;;;;;5055037;28;20178;-78
2021/10/06 08:53:48;;;;;;;6.13;3.50;;;11.80;99.90;;;;;;5054434;28;20593;-76
2021/10/06 08:56:14;;;;;;;8.57;3.40;;;11.80;99.90;;;;;;5057561;28;20235;-77
2021/10/06 08:58:40;;;;;;;6.80;3.03;;;11.80;99.90;;;;;;5054516;28;20276;-78
2021/10/06 09:01:06;;;;;;;7.80;3.57;;;12.00;99.90;;;;;;5054697;28;20193;-77
2021/10/06 09:03:36;;;;;;;6.83;3.60;;;11.80;99.90;;;;;;5053752;28;20188;-77
2021/10/06 09:06:07;;;;;;;9.10;3.33;;;11.90;99.90;;;;;;5054689;28;20223;-78
2021/10/06 09:08:38;;;;;;;5.70;2.67;;;11.90;99.90;;;;;;5054544;28;20204;-78
2021/10/06 09:11:06;;;;;;;5.87;3.37;;;11.80;99.90;;;;;;5061444;28;20181;-77
2021/10/06 09:13:37;;;;;;;5.33;2.77;;;11.80;99.90;;;;;;5069371;28;20172;-79
2021/10/06 09:16:04;;;;;;;6.53;2.87;;;11.80;99.90;;;;;;5059359;28;20183;-78
2021/10/06 09:18:31;;;;;;;7.23;2.70;;;11.80;99.90;;;;;;5053697;28;20205;-78
2021/10/06 09:20:59;;;;;;;7.73;3.40;;;11.80;99.90;;;;;;5063469;28;20237;-82
2021/10/06 09:23:28;;;;;;;5.80;3.00;;;11.90;99.90;;;;;;5051688;28;20170;-83
2021/10/06 09:26:05;;;;;;;9.13;3.90;;;11.70;99.90;;;;;;5053589;28;20215;-86
2021/10/06 09:28:38;;;;;;;7.33;3.70;;;11.80;99.90;;;;;;5055589;28;20292;-86
2021/10/06 09:31:11;;;;;;;6.57;3.20;;;11.80;99.90;;;;;;5053398;28;20581;-84
2021/10/06 09:33:49;;;;;;;9.30;3.73;;;11.70;99.90;;;;;;5054305;28;20219;-85
2021/10/06 09:36:27;;;;;;;6.13;3.40;;;11.70;99.90;;;;;;5056922;28;20183;-86
2021/10/06 09:39:00;;;;;;;7.60;3.60;;;11.70;99.90;;;;;;5054733;28;20177;-86
2021/10/06 09:41:33;;;;;;;10.13;4.00;;;11.70;99.90;;;;;;5054358;28;20177;-86
2021/10/06 09:44:08;;;;;;;7.23;3.50;;;11.70;99.90;;;;;;5054267;28;20233;-86
2021/10/06 09:46:50;;;;;;;8.23;3.90;;;11.80;99.90;;;;;;5054342;28;20684;-82
2021/10/06 09:49:37;;;;;;;7.10;3.67;;;11.70;99.90;;;;;;5053021;28;20180;-85
2021/10/06 09:52:18;;;;;;;6.47;4.23;;;11.80;99.90;;;;;;5055012;28;20632;-86
2021/10/06 09:54:51;;;;;;;7.07;3.87;;;11.80;99.90;;;;;;5052783;28;20181;-83
2021/10/06 09:57:24;;;;;;;8.00;4.33;;;11.70;99.90;;;;;;5053766;28;20211;-87
2021/10/06 09:59:51;;;;;;;8.33;4.30;;;11.80;99.90;;;;;;5053050;28;20191;-85
2021/10/06 10:02:18;;;;;;;7.37;3.83;;;11.80;99.90;;;;;;5055288;28;20259;-85
2021/10/06 10:04:44;;;;;;;8.13;4.03;;;11.80;99.90;;;;;;5055213;28;20169;-87
2021/10/06 10:07:10;;;;;;;6.63;4.10;;;11.90;99.90;;;;;;5054864;28;20220;-85
2021/10/06 10:09:37;;;;;;;4.43;3.40;;;11.90;99.90;;;;;;5056395;28;20181;-86
2021/10/06 10:12:03;;;;;;;10.53;3.87;;;11.80;99.90;;;;;;5060893;28;20180;-84
2021/10/06 10:14:29;;;;;;;8.30;3.87;;;11.90;99.90;;;;;;5055707;28;20260;-82
2021/10/06 10:16:55;;;;;;;7.23;3.93;;;11.90;99.90;;;;;;5053433;28;20259;-82
2021/10/06 10:19:25;;;;;;;6.90;4.73;;;11.90;99.90;;;;;;5053235;28;20177;-82
2021/10/06 10:21:52;;;;;;;8.47;3.73;;;11.90;99.90;;;;;;5053083;28;20192;-84
2021/10/06 10:24:23;;;;;;;4.97;3.70;;;12.00;99.90;;;;;;5054473;28;20204;-85
2021/10/06 10:27:10;;;;;;;8.03;4.47;;;11.90;99.90;;;;;;5053817;28;20208;-85
2021/10/06 10:29:37;;;;;;;7.73;3.87;;;12.00;99.90;;;;;;5059261;28;20192;-86
2021/10/06 10:32:08;;;;;;;6.57;4.10;;;11.90;99.90;;;;;;5053255;28;20193;-82
2021/10/06 10:35:01;;;;;;;5.43;3.87;;;11.90;99.90;;;;;;5053587;28;20181;-83
2021/10/06 10:37:59;;;;;;;4.87;4.17;;;11.90;99.90;;;;;;5052316;28;20589;-82
2021/10/06 10:40:40;;;;;;;6.83;3.93;;;12.00;99.90;;;;;;5025504;28;20255;-83
2021/10/06 10:43:18;;;;;;;7.90;4.17;;;11.90;99.90;;;;;;5052853;28;20180;-82
2021/10/06 10:45:59;;;;;;;5.17;3.90;;;12.00;99.90;;;;;;5053292;28;20401;-83
2021/10/06 10:49:03;;;;;;;5.57;3.97;;;12.10;99.90;;;;;;5051865;28;20653;-82
2021/10/06 10:51:53;;;;;;;4.43;3.43;;;12.00;99.90;;;;;;5052097;28;20177;-83
2021/10/06 10:54:32;;;;;;;4.03;3.63;;;12.00;99.90;;;;;;5051436;28;20216;-83
2021/10/06 10:57:18;;;;;;;4.90;3.20;;;12.00;99.90;;;;;;5051546;28;20295;-82
2021/10/06 10:59:46;;;;;;;6.43;3.67;;;12.00;99.90;;;;;;5053388;28;20176;-83
2021/10/06 11:02:28;;;;;;;4.60;3.37;;;12.20;99.90;;;;;;5056566;28;20180;-82
2021/10/06 11:04:56;;;;;;;4.33;3.43;;;12.20;99.90;;;;;;5060238;28;20168;-82
2021/10/06 11:07:23;;;;;;;5.23;3.57;;;12.20;99.90;;;;;;5056789;28;20232;-83
2021/10/06 11:10:02;;;;;;;5.57;3.23;;;12.20;99.90;;;;;;5056902;28;20204;-83
2021/10/06 11:12:33;;;;;;;6.70;3.63;;;12.30;99.90;;;;;;5057178;28;20189;-83
2021/10/06 11:15:29;;;;;;;6.90;3.43;;;12.40;99.90;;;;;;5058379;28;20252;-83
2021/10/06 11:18:07;;;;;;;4.43;3.10;;;12.40;99.90;;;;;;5042537;28;20181;-83
2021/10/06 11:20:40;;;;;;;6.77;3.17;;;12.40;99.90;;;;;;5061536;28;20204;-82
2021/10/06 11:23:30;;;;;;;7.13;3.20;;;12.30;99.90;;;;;;5065059;28;20192;-82
2021/10/06 11:26:14;;;;;;;7.20;3.67;;;12.40;99.90;;;;;;5067144;28;20177;-85
2021/10/06 11:28:49;;;;;;;6.97;3.83;;;12.40;99.90;;;;;;5056725;28;20601;-88
2021/10/06 11:31:27;;;;;;;4.97;3.37;;;12.60;99.90;;;;;;5061460;28;20663;-85
2021/10/06 11:33:55;;;;;;;5.33;3.50;;;12.70;99.90;;;;;;5066108;28;20232;-85
2021/10/06 11:36:26;;;;;;;4.00;3.40;;;12.60;99.90;;;;;;5062493;28;20175;-86
2021/10/06 11:39:03;;;;;;;6.47;3.80;;;12.60;99.90;;;;;;5057187;28;20267;-84
2021/10/06 11:41:30;;;;;;;5.73;3.90;;;12.60;99.90;;;;;;5064122;28;20177;-84
2021/10/06 11:43:57;;;;;;;6.03;3.50;;;12.80;99.90;;;;;;5054995;28;20217;-86
2021/10/06 11:46:26;;;;;;;7.07;3.60;;;12.90;99.90;;;;;;5037724;28;20247;-87
2021/10/06 11:48:54;;;;;;;6.73;3.60;;;12.90;99.90;;;;;;5051162;28;20710;-87
2021/10/06 11:51:35;;;;;;;8.33;3.53;;;13.00;99.90;;;;;;5059037;28;20240;-86
2021/10/06 11:54:01;;;;;;;5.30;3.33;;;13.00;99.90;;;;;;5056842;28;20660;-87
2021/10/06 11:56:30;;;;;;;5.03;2.97;;;13.10;99.90;;;;;;5055892;28;20268;-83
2021/10/06 11:59:14;;;;;;;6.77;3.23;;;13.10;99.90;;;;;;5036550;28;20190;-82
2021/10/06 12:01:53;;;;;;;5.07;3.03;;;13.00;99.90;;;;;;5042641;28;20180;-80
2021/10/06 12:04:21;;;;;;;4.37;2.70;;;12.90;99.90;;;;;;5044738;28;20185;-84
2021/10/06 12:06:50;;;;;;;6.57;2.80;;;12.90;99.90;;;;;;5055094;28;20280;-83
2021/10/06 12:09:17;;;;;;;4.13;3.10;;;12.70;99.90;;;;;;5054473;28;20185;-84
2021/10/06 12:11:46;;;;;;;5.93;2.80;;;12.80;99.90;;;;;;5054404;28;20183;-85
2021/10/06 12:14:27;;;;;;;4.80;3.50;;;12.90;99.90;;;;;;5055331;28;20195;-81
2021/10/06 12:17:14;;;;;;;7.03;3.07;;;13.00;99.90;;;;;;5053666;28;20264;-85
2021/10/06 12:19:51;;;;;;;6.13;3.70;;;12.90;99.90;;;;;;5052704;28;20180;-82
2021/10/06 12:22:17;;;;;;;6.73;3.90;;;12.90;99.90;;;;;;5053525;28;20208;-83
2021/10/06 12:24:43;;;;;;;9.90;4.10;;;12.90;99.90;;;;;;5054782;28;20639;-84
2021/10/06 12:27:25;;;;;;;7.10;4.43;;;13.00;99.90;;;;;;5054041;28;20714;-82
2021/10/06 12:30:08;;;;;;;6.47;5.13;;;13.00;99.90;;;;;;5056764;28;20181;-80
2021/10/06 12:32:34;;;;;;;9.03;5.77;;;13.10;99.90;;;;;;5055061;28;20264;-81
2021/10/06 12:35:12;;;;;;;5.43;4.27;;;13.30;99.90;;;;;;5054948;28;20185;-80
2021/10/06 12:37:49;;;;;;;7.27;4.93;;;13.30;99.90;;;;;;5053769;28;20263;-80
2021/10/06 12:40:50;;;;;;;20.83;12.50;;;13.40;99.90;;;;;;5068693;28;20182;-81
2021/10/06 12:43:17;;;;;;;6.07;3.80;;;13.40;99.90;;;;;;5075249;28;20175;-82
2021/10/06 12:46:13;;;;;;;7.63;4.00;;;13.50;99.90;;;;;;5075911;28;20293;-84
2021/10/06 12:48:53;;;;;;;6.87;3.63;;;13.40;99.90;;;;;;5074468;28;20192;-82
2021/10/06 12:51:24;;;;;;;6.93;3.87;;;13.40;99.90;;;;;;5075224;28;20207;-79
2021/10/06 12:53:55;;;;;;;8.40;5.23;;;13.30;99.90;;;;;;5076960;28;20180;-80